Time;durP1;ratioP1;P1;durP2;ratioP2;P2;SDS_P1;SDS_P2;PMS_P1;PMS_P2;Temp;Humidity;BMP_temperature;BMP_pressure;BME280_temperature;BME280_humidity;BME280_pressure;Samples;Min_cycle;Max_cycle;Signal;HPM_P1;HPM_P2
2022/03/14 05:01:49;;;;;;;3.25;2.92;;;6.80;99.90;;;;;;5337883;22;90913;-83
2022/03/14 05:04:14;;;;;;;2.97;2.67;;;6.80;99.90;;;;;;4962799;28;89245;-83
2022/03/14 05:06:48;;;;;;;3.40;2.85;;;6.80;99.90;;;;;;4980276;28;88961;-83
2022/03/14 05:09:14;;;;;;;4.00;3.20;;;6.80;99.90;;;;;;4980565;28;89650;-83
2022/03/14 05:11:40;;;;;;;4.30;3.15;;;6.80;99.90;;;;;;4961842;28;89040;-83
2022/03/14 05:14:08;;;;;;;6.45;3.85;;;6.80;99.90;;;;;;4982092;28;89119;-82
2022/03/14 05:16:34;;;;;;;5.05;3.80;;;6.80;99.90;;;;;;4979450;28;88875;-83
2022/03/14 05:19:00;;;;;;;6.00;3.70;;;6.80;99.90;;;;;;4979843;28;89416;-82
2022/03/14 05:21:26;;;;;;;5.68;3.42;;;6.90;99.90;;;;;;4961974;28;89167;-82
2022/03/14 05:23:52;;;;;;;4.45;3.40;;;6.90;99.90;;;;;;4961956;28;89380;-83
2022/03/14 05:26:18;;;;;;;3.42;3.00;;;6.90;99.90;;;;;;4961774;28;91763;-82
2022/03/14 05:28:43;;;;;;;4.55;3.33;;;6.90;99.90;;;;;;4979865;28;89073;-83
2022/03/14 05:31:09;;;;;;;4.88;3.38;;;6.90;99.90;;;;;;4979828;28;89082;-82
2022/03/14 05:33:35;;;;;;;4.75;3.42;;;7.00;99.90;;;;;;4979859;28;89201;-82
2022/03/14 05:36:01;;;;;;;5.40;3.97;;;6.90;99.90;;;;;;4979533;28;89101;-82
2022/03/14 05:38:28;;;;;;;4.28;3.47;;;6.90;99.90;;;;;;4979968;28;89163;-83
2022/03/14 05:40:54;;;;;;;4.55;3.40;;;6.90;99.90;;;;;;4962743;28;89064;-83
2022/03/14 05:43:21;;;;;;;4.43;3.20;;;7.00;99.90;;;;;;4965441;28;89150;-82
2022/03/14 05:45:46;;;;;;;5.40;3.42;;;7.00;99.90;;;;;;4982468;28;90667;-83
2022/03/14 05:48:12;;;;;;;4.93;3.42;;;6.90;99.90;;;;;;4982658;28;89409;-82
2022/03/14 05:50:37;;;;;;;5.55;3.40;;;6.90;99.90;;;;;;4964780;28;89020;-80
2022/03/14 05:53:03;;;;;;;5.30;3.55;;;6.90;99.90;;;;;;4983089;28;89146;-81
2022/03/14 05:55:29;;;;;;;5.82;3.47;;;6.80;99.90;;;;;;4964631;28;92928;-81
2022/03/14 05:57:54;;;;;;;6.15;3.53;;;6.90;99.90;;;;;;4982191;28;88972;-80
2022/03/14 06:00:24;;;;;;;4.97;3.45;;;6.90;99.90;;;;;;4964606;28;89014;-80
2022/03/14 06:02:52;;;;;;;8.32;3.83;;;7.00;99.90;;;;;;4982323;28;88971;-80
2022/03/14 06:05:19;;;;;;;5.22;3.28;;;7.00;99.90;;;;;;4964470;28;91776;-80
2022/03/14 06:07:45;;;;;;;6.38;2.90;;;7.00;99.90;;;;;;4964553;28;91160;-81
2022/03/14 06:10:11;;;;;;;4.78;2.83;;;7.00;99.90;;;;;;4984943;28;89107;-81
2022/03/14 06:12:37;;;;;;;5.53;2.63;;;7.00;99.90;;;;;;4983390;28;89180;-82
2022/03/14 06:15:04;;;;;;;5.30;2.92;;;7.00;99.90;;;;;;4983593;28;89728;-82
2022/03/14 06:17:29;;;;;;;5.20;2.85;;;7.00;99.90;;;;;;4983838;28;90128;-82
2022/03/14 06:19:55;;;;;;;4.47;2.55;;;7.00;99.90;;;;;;4985024;28;88927;-82
2022/03/14 06:22:23;;;;;;;6.60;2.53;;;7.00;99.90;;;;;;4984899;28;89115;-82
2022/03/14 06:24:50;;;;;;;8.68;2.47;;;7.00;99.90;;;;;;4966922;28;92561;-82
2022/03/14 06:27:17;;;;;;;7.18;2.25;;;7.00;99.90;;;;;;4985088;28;89681;-81
2022/03/14 06:29:43;;;;;;;7.18;2.22;;;7.10;99.90;;;;;;4982779;28;89106;-82
2022/03/14 06:32:10;;;;;;;7.55;2.50;;;7.10;99.90;;;;;;4986003;28;89468;-81
2022/03/14 06:34:36;;;;;;;6.95;2.00;;;7.10;99.90;;;;;;4989791;28;92298;-81
2022/03/14 06:37:02;;;;;;;5.50;1.90;;;7.10;99.90;;;;;;4991012;28;90474;-82
2022/03/14 06:39:28;;;;;;;6.32;2.03;;;7.20;99.90;;;;;;4990129;28;88970;-80
2022/03/14 06:41:53;;;;;;;5.05;1.92;;;7.20;99.90;;;;;;4991209;28;89363;-81
2022/03/14 06:44:19;;;;;;;6.07;1.95;;;7.20;99.90;;;;;;4991101;28;91537;-81
2022/03/14 06:46:45;;;;;;;6.82;2.30;;;7.30;99.90;;;;;;4991922;28;91854;-81
2022/03/14 06:49:16;;;;;;;8.23;2.30;;;7.30;99.90;;;;;;4993885;28;89027;-81
2022/03/14 06:51:44;;;;;;;5.70;2.10;;;7.30;99.90;;;;;;4993087;28;88793;-82
2022/03/14 06:54:10;;;;;;;8.23;2.00;;;7.40;99.90;;;;;;4987311;28;91798;-81
2022/03/14 06:56:37;;;;;;;9.38;2.00;;;7.40;99.90;;;;;;4987252;28;90026;-83
2022/03/14 06:59:03;;;;;;;4.95;1.80;;;7.40;99.90;;;;;;4983379;28;88932;-78
2022/03/14 07:01:30;;;;;;;8.13;2.72;;;7.40;99.90;;;;;;4981204;28;89214;-77
2022/03/14 07:03:58;;;;;;;5.53;2.05;;;7.40;99.90;;;;;;4981263;28;88904;-79
2022/03/14 07:06:24;;;;;;;4.35;1.60;;;7.50;99.90;;;;;;4980167;28;89580;-76
2022/03/14 07:08:49;;;;;;;5.65;1.60;;;7.50;99.90;;;;;;4980018;28;88988;-78
2022/03/14 07:11:24;;;;;;;8.85;2.28;;;7.50;99.90;;;;;;4979070;28;89093;-78
2022/03/14 07:13:56;;;;;;;6.30;1.90;;;7.50;99.90;;;;;;4979653;28;89760;-78
2022/03/14 07:16:22;;;;;;;5.07;1.98;;;7.50;99.90;;;;;;4964317;28;90620;-79
2022/03/14 07:18:47;;;;;;;5.55;2.03;;;7.50;99.90;;;;;;4980772;28;89063;-79
2022/03/14 07:21:13;;;;;;;11.90;2.50;;;7.60;99.90;;;;;;4980421;28;89206;-79
2022/03/14 07:23:39;;;;;;;10.07;2.03;;;7.60;99.90;;;;;;4980744;28;90202;-79
2022/03/14 07:26:04;;;;;;;4.80;2.00;;;7.60;99.90;;;;;;4961110;28;92441;-80
2022/03/14 07:28:33;;;;;;;13.55;2.40;;;7.60;99.90;;;;;;4981677;28;89211;-80
2022/03/14 07:30:58;;;;;;;8.95;2.10;;;7.60;99.90;;;;;;4973190;28;89161;-78
2022/03/14 07:33:24;;;;;;;6.28;1.50;;;7.60;99.90;;;;;;4979942;28;91368;-79
2022/03/14 07:35:50;;;;;;;4.60;1.80;;;7.60;99.90;;;;;;4979786;28;89567;-81
2022/03/14 07:38:15;;;;;;;6.53;1.85;;;7.60;99.90;;;;;;4978217;28;89159;-80
2022/03/14 07:40:42;;;;;;;4.30;1.60;;;7.70;99.90;;;;;;4979413;28;89031;-80
2022/03/14 07:43:09;;;;;;;5.38;1.80;;;7.70;99.90;;;;;;5000262;28;89795;-82
2022/03/14 07:45:34;;;;;;;4.15;1.70;;;7.70;99.90;;;;;;5004615;28;88144;-82
2022/03/14 07:48:00;;;;;;;4.90;1.98;;;7.80;99.90;;;;;;4981286;28;89003;-79
2022/03/14 07:50:27;;;;;;;5.80;1.73;;;7.80;99.90;;;;;;4962520;28;89315;-79
2022/03/14 07:52:55;;;;;;;7.75;1.88;;;7.70;99.90;;;;;;4962673;28;93261;-79
2022/03/14 07:55:21;;;;;;;5.80;1.58;;;7.70;99.90;;;;;;4977000;28;89054;-79
2022/03/14 07:57:47;;;;;;;8.02;2.20;;;7.80;99.90;;;;;;4977095;28;88978;-79
2022/03/14 08:00:15;;;;;;;5.47;1.55;;;7.80;99.90;;;;;;4979828;28;89033;-79
2022/03/14 08:02:41;;;;;;;6.28;2.08;;;7.90;99.90;;;;;;4979006;28;90836;-78
2022/03/14 08:05:09;;;;;;;10.20;1.98;;;7.90;99.90;;;;;;4977965;28;89855;-79
2022/03/14 08:07:35;;;;;;;12.43;2.33;;;7.90;99.90;;;;;;4979721;28;89749;-76
2022/03/14 08:10:04;;;;;;;6.13;1.60;;;7.90;99.90;;;;;;4977031;28;89509;-80
2022/03/14 08:12:31;;;;;;;8.13;1.98;;;7.90;99.90;;;;;;4979213;28;89003;-78
2022/03/14 08:14:57;;;;;;;7.60;1.88;;;7.90;99.90;;;;;;4979197;28;89704;-78
2022/03/14 08:17:23;;;;;;;7.47;1.63;;;8.10;99.90;;;;;;4976711;28;89802;-77
2022/03/14 08:19:49;;;;;;;7.43;2.10;;;8.10;99.90;;;;;;4979465;28;88820;-78
2022/03/14 08:22:14;;;;;;;7.88;1.83;;;8.30;99.90;;;;;;4960956;28;91350;-77
2022/03/14 08:24:40;;;;;;;7.18;1.92;;;8.40;99.90;;;;;;4978043;28;90072;-78
2022/03/14 08:27:05;;;;;;;5.63;1.67;;;8.40;99.90;;;;;;4978880;28;88913;-79
2022/03/14 08:29:32;;;;;;;5.15;1.77;;;8.30;99.90;;;;;;4979549;28;89178;-80
2022/03/14 08:31:58;;;;;;;11.82;2.50;;;8.30;99.90;;;;;;4961397;28;92998;-79
2022/03/14 08:34:25;;;;;;;5.13;1.73;;;8.10;99.90;;;;;;4961411;28;91229;-79
2022/03/14 08:36:50;;;;;;;8.40;2.28;;;7.90;99.90;;;;;;4978411;28;89479;-80
2022/03/14 08:39:16;;;;;;;7.50;1.80;;;7.60;99.90;;;;;;4980699;28;89217;-79
2022/03/14 08:41:42;;;;;;;6.20;1.83;;;7.40;99.90;;;;;;4980055;28;89940;-80
2022/03/14 08:44:08;;;;;;;9.02;1.75;;;7.30;99.90;;;;;;4980568;28;89862;-80
2022/03/14 08:46:34;;;;;;;6.93;2.03;;;7.20;99.90;;;;;;4980221;28;88972;-80
2022/03/14 08:49:01;;;;;;;11.23;2.25;;;7.10;99.90;;;;;;4962010;28;89054;-78
2022/03/14 08:51:27;;;;;;;8.63;1.92;;;7.20;99.90;;;;;;4963119;28;91976;-81
2022/03/14 08:53:53;;;;;;;7.88;2.63;;;7.30;99.90;;;;;;4983388;28;90981;-78
2022/03/14 08:56:19;;;;;;;10.05;2.05;;;7.40;99.90;;;;;;4964575;28;89465;-80
2022/03/14 08:58:45;;;;;;;8.52;2.00;;;7.50;99.90;;;;;;4966278;28;89441;-80
2022/03/14 09:01:11;;;;;;;8.60;2.30;;;7.70;99.90;;;;;;4982356;28;90155;-80
2022/03/14 09:03:37;;;;;;;7.40;2.20;;;8.00;99.90;;;;;;4969233;28;91257;-78
2022/03/14 09:06:03;;;;;;;7.22;1.80;;;8.30;99.90;;;;;;4982978;28;89051;-79
2022/03/14 09:08:29;;;;;;;7.05;2.08;;;8.30;99.90;;;;;;4981800;28;89113;-77
2022/03/14 09:10:55;;;;;;;8.38;2.20;;;8.40;99.90;;;;;;4969493;28;92836;-83
2022/03/14 09:13:21;;;;;;;10.88;2.60;;;8.50;99.90;;;;;;4969995;28;91261;-83
2022/03/14 09:15:48;;;;;;;9.75;2.30;;;8.50;99.90;;;;;;4972132;28;89194;-84
2022/03/14 09:18:14;;;;;;;8.43;2.10;;;8.70;99.90;;;;;;4972898;28;89130;-82
2022/03/14 09:20:48;;;;;;;9.02;3.28;;;8.70;99.90;;;;;;4990528;28;90005;-83
2022/03/14 09:23:27;;;;;;;7.60;2.60;;;8.90;99.90;;;;;;4974874;28;90287;-83
2022/03/14 09:25:55;;;;;;;8.60;2.38;;;8.80;99.90;;;;;;5004244;28;88846;-82
2022/03/14 09:28:20;;;;;;;5.47;2.00;;;9.00;99.90;;;;;;4984712;28;89025;-82
2022/03/14 09:30:47;;;;;;;11.95;1.90;;;9.20;99.90;;;;;;4966101;28;91082;-82
2022/03/14 09:33:12;;;;;;;5.40;1.85;;;9.50;99.90;;;;;;4985560;28;89074;-82
2022/03/14 09:35:38;;;;;;;7.45;1.75;;;9.50;99.90;;;;;;4986025;28;89124;-83
2022/03/14 09:38:03;;;;;;;4.90;1.42;;;9.50;99.90;;;;;;4985560;28;89345;-82
2022/03/14 09:40:31;;;;;;;7.22;1.50;;;9.40;99.90;;;;;;4984320;28;89620;-79
2022/03/14 09:42:59;;;;;;;6.28;1.58;;;9.50;99.90;;;;;;4964959;28;90928;-79
2022/03/14 09:45:26;;;;;;;6.03;1.45;;;9.80;99.90;;;;;;4964635;28;89029;-79
2022/03/14 09:47:57;;;;;;;6.38;1.80;;;9.80;99.90;;;;;;4981672;28;88912;-79
2022/03/14 09:50:32;;;;;;;5.88;1.23;;;9.60;99.90;;;;;;4982344;28;89006;-75
2022/03/14 09:52:58;;;;;;;6.57;1.60;;;9.70;99.90;;;;;;4982184;28;89166;-77
2022/03/14 09:55:24;;;;;;;9.73;2.03;;;9.70;99.90;;;;;;4964352;28;89113;-78
2022/03/14 09:57:50;;;;;;;8.82;2.15;;;9.70;99.90;;;;;;4982241;28;88842;-77
2022/03/14 10:00:17;;;;;;;5.93;1.48;;;9.80;99.90;;;;;;4962620;28;92958;-77
2022/03/14 10:02:43;;;;;;;10.82;1.88;;;9.80;99.90;;;;;;4981987;28;89079;-76
2022/03/14 10:05:11;;;;;;;5.35;1.50;;;10.10;99.90;;;;;;4982363;28;89072;-76
2022/03/14 10:07:38;;;;;;;6.55;1.60;;;10.10;99.90;;;;;;4981570;28;89113;-78
2022/03/14 10:10:05;;;;;;;4.78;1.58;;;10.30;99.90;;;;;;4964010;28;92590;-77
2022/03/14 10:12:32;;;;;;;5.78;1.30;;;10.60;99.90;;;;;;4981026;28;88983;-76
2022/03/14 10:14:58;;;;;;;8.18;1.70;;;11.20;99.90;;;;;;4984845;28;88976;-77
2022/03/14 10:17:30;;;;;;;6.07;1.40;;;11.60;99.90;;;;;;4966486;28;89116;-77
2022/03/14 10:19:58;;;;;;;5.95;1.30;;;12.00;99.90;;;;;;4981452;28;88968;-77
2022/03/14 10:22:36;;;;;;;6.15;1.42;;;11.70;99.90;;;;;;4981432;28;89178;-77
2022/03/14 10:25:05;;;;;;;6.70;1.60;;;11.20;99.90;;;;;;4983142;28;89394;-76
2022/03/14 10:27:34;;;;;;;5.13;1.50;;;11.00;99.90;;;;;;4981084;28;89350;-77
2022/03/14 10:29:59;;;;;;;6.72;1.33;;;10.70;99.90;;;;;;4983874;28;90162;-77
2022/03/14 10:32:30;;;;;;;7.35;1.80;;;10.60;99.90;;;;;;4981800;28;89398;-74
2022/03/14 10:35:04;;;;;;;6.55;1.60;;;10.60;99.90;;;;;;4986389;28;88754;-77
2022/03/14 10:37:31;;;;;;;5.10;1.40;;;10.70;99.90;;;;;;4983639;28;89116;-77
2022/03/14 10:40:05;;;;;;;6.28;1.60;;;10.90;99.90;;;;;;4966120;28;91419;-78
2022/03/14 10:42:42;;;;;;;3.95;1.20;;;10.80;99.90;;;;;;4983576;28;89713;-77
2022/03/14 10:45:12;;;;;;;6.78;1.58;;;10.70;99.90;;;;;;4967387;28;89235;-79
2022/03/14 10:47:46;;;;;;;8.18;1.50;;;10.60;99.90;;;;;;4967673;28;89621;-75
2022/03/14 10:50:33;;;;;;;4.60;1.77;;;10.90;99.90;;;;;;4981742;28;88930;-76
2022/03/14 10:53:16;;;;;;;5.40;2.15;;;11.60;99.90;;;;;;4944213;28;93065;-76
2022/03/14 10:55:45;;;;;;;5.43;2.40;;;12.10;99.90;;;;;;4965573;28;90206;-76
2022/03/14 10:58:17;;;;;;;11.07;3.08;;;12.50;99.90;;;;;;4965090;28;89287;-76
2022/03/14 11:01:22;;;;;;;8.82;3.42;;;12.80;99.90;;;;;;4974350;28;89932;-77
2022/03/14 11:03:47;;;;;;;6.25;1.80;;;12.80;99.90;;;;;;4993581;28;91196;-79
2022/03/14 11:06:20;;;;;;;4.18;1.30;;;12.70;99.90;;;;;;4987087;28;89560;-78
2022/03/14 11:08:47;;;;;;;5.97;1.73;;;13.10;99.90;;;;;;4966749;28;89294;-80
2022/03/14 11:11:22;;;;;;;5.18;1.23;;;13.30;99.90;;;;;;4983924;28;90634;-76
2022/03/14 11:13:48;;;;;;;4.35;1.08;;;13.40;99.90;;;;;;4987876;22;90535;-76
2022/03/14 11:16:23;;;;;;;5.03;1.05;;;13.40;99.90;;;;;;4976144;28;89775;-76
2022/03/14 11:18:50;;;;;;;5.03;1.23;;;13.00;99.90;;;;;;4979289;28;89221;-76
2022/03/14 11:21:19;;;;;;;4.45;1.40;;;12.60;99.90;;;;;;4979385;28;89776;-77
2022/03/14 11:23:46;;;;;;;2.78;0.80;;;12.40;99.90;;;;;;4978321;28;89844;-75
2022/03/14 11:26:13;;;;;;;4.10;1.02;;;12.30;99.90;;;;;;4964264;28;89257;-75
2022/03/14 11:28:41;;;;;;;2.17;0.80;;;12.40;99.90;;;;;;4958361;28;90166;-75
2022/03/14 11:31:07;;;;;;;4.53;0.98;;;12.50;99.40;;;;;;4958949;28;89340;-75
2022/03/14 11:33:35;;;;;;;3.67;0.70;;;12.60;99.90;;;;;;4959285;28;89367;-76
2022/03/14 11:36:02;;;;;;;4.40;0.75;;;12.70;98.90;;;;;;4958644;28;89162;-76
2022/03/14 11:38:29;;;;;;;3.00;0.90;;;12.90;95.80;;;;;;4966143;28;89336;-76
2022/03/14 11:40:56;;;;;;;5.82;0.93;;;13.00;97.50;;;;;;4957190;28;94522;-77
2022/03/14 11:43:22;;;;;;;2.95;1.02;;;13.30;96.20;;;;;;4957430;28;92401;-76
2022/03/14 11:45:50;;;;;;;4.55;1.10;;;13.20;94.20;;;;;;4960046;28;89056;-78
2022/03/14 11:48:16;;;;;;;3.70;0.90;;;13.50;93.50;;;;;;4960480;28;89635;-77
2022/03/14 11:50:55;;;;;;;4.28;0.95;;;13.60;93.90;;;;;;4961015;28;90047;-79
2022/03/14 11:53:25;;;;;;;3.33;1.00;;;13.70;93.10;;;;;;4960774;28;91252;-79
2022/03/14 11:55:59;;;;;;;5.15;1.02;;;14.00;94.90;;;;;;4959856;28;92687;-81
2022/03/14 11:58:51;;;;;;;5.93;1.10;;;14.20;94.20;;;;;;4962279;28;89254;-80
2022/03/14 12:01:29;;;;;;;4.18;1.10;;;14.10;94.10;;;;;;4978425;28;89925;-80
2022/03/14 12:03:56;;;;;;;5.03;1.00;;;14.00;94.60;;;;;;4978940;28;89411;-78
2022/03/14 12:06:46;;;;;;;3.42;0.80;;;13.70;95.90;;;;;;4974269;28;92088;-77
2022/03/14 12:09:27;;;;;;;5.45;1.10;;;13.80;94.30;;;;;;4955836;28;89427;-77
2022/03/14 12:11:57;;;;;;;7.30;1.10;;;13.60;94.10;;;;;;4958168;28;91917;-77
2022/03/14 12:14:42;;;;;;;6.38;1.83;;;13.50;94.30;;;;;;4962284;28;93458;-79
2022/03/14 12:17:14;;;;;;;4.13;1.08;;;13.40;95.60;;;;;;4957749;28;91750;-77
2022/03/14 12:19:48;;;;;;;3.40;1.15;;;13.60;94.40;;;;;;4957402;28;90529;-77
2022/03/14 12:22:35;;;;;;;4.80;1.42;;;13.70;93.20;;;;;;4957334;28;91995;-76
2022/03/14 12:25:05;;;;;;;4.25;1.02;;;13.60;92.80;;;;;;4958739;28;89287;-76
2022/03/14 12:27:38;;;;;;;4.45;1.38;;;13.80;93.00;;;;;;4958391;28;90322;-76
2022/03/14 12:30:16;;;;;;;3.67;1.00;;;13.80;92.40;;;;;;4960077;28;89628;-76
2022/03/14 12:32:45;;;;;;;5.22;1.45;;;13.80;92.70;;;;;;4978191;28;90233;-77
2022/03/14 12:35:22;;;;;;;4.32;1.02;;;14.30;92.80;;;;;;4978098;28;90384;-77
2022/03/14 12:37:50;;;;;;;4.07;1.48;;;14.40;91.70;;;;;;4978653;28;89812;-75
2022/03/14 12:40:21;;;;;;;3.92;1.00;;;14.70;92.70;;;;;;4975266;28;89191;-76
2022/03/14 12:42:49;;;;;;;2.65;1.00;;;15.20;91.30;;;;;;4962320;28;92125;-76
2022/03/14 12:45:31;;;;;;;6.30;1.17;;;15.00;91.30;;;;;;4967714;28;92040;-76
2022/03/14 12:48:06;;;;;;;5.10;1.42;;;14.90;91.30;;;;;;4957019;28;93771;-77
2022/03/14 12:50:50;;;;;;;3.00;1.00;;;14.90;91.00;;;;;;4964492;28;89271;-76
2022/03/14 12:53:29;;;;;;;2.75;1.05;;;14.60;90.40;;;;;;4981729;28;90345;-79
2022/03/14 12:55:57;;;;;;;2.50;1.08;;;14.50;90.20;;;;;;4980589;28;89278;-78
2022/03/14 12:58:26;;;;;;;4.38;1.15;;;14.00;90.40;;;;;;4970930;28;90141;-78
2022/03/14 13:00:55;;;;;;;5.15;1.20;;;13.80;90.90;;;;;;4961211;28;89152;-78
2022/03/14 13:03:23;;;;;;;2.58;0.90;;;13.70;91.30;;;;;;4968581;28;92040;-79
2022/03/14 13:05:50;;;;;;;2.72;1.02;;;13.60;91.20;;;;;;4963706;28;91700;-81
2022/03/14 13:08:16;;;;;;;5.57;1.42;;;13.60;91.30;;;;;;4957777;28;91498;-79
2022/03/14 13:10:46;;;;;;;5.82;1.27;;;13.80;91.20;;;;;;4960847;28;90272;-79
2022/03/14 13:13:13;;;;;;;2.40;1.10;;;13.80;91.80;;;;;;4960536;28;92541;-81
2022/03/14 13:15:41;;;;;;;8.07;1.52;;;13.70;91.10;;;;;;4960519;28;90488;-78
2022/03/14 13:18:21;;;;;;;4.30;1.05;;;13.60;91.80;;;;;;4961358;28;89232;-80
2022/03/14 13:20:46;;;;;;;3.92;1.00;;;13.60;92.40;;;;;;4959626;28;89471;-80
2022/03/14 13:23:17;;;;;;;3.47;1.05;;;13.80;91.10;;;;;;4959697;28;93302;-80
2022/03/14 13:25:48;;;;;;;4.47;0.95;;;13.90;89.60;;;;;;4959193;28;92140;-80
2022/03/14 13:28:26;;;;;;;5.93;1.17;;;13.70;90.20;;;;;;4965768;28;92165;-79
2022/03/14 13:30:52;;;;;;;5.70;1.00;;;13.70;90.50;;;;;;4962321;28;89254;-79
2022/03/14 13:33:23;;;;;;;5.97;1.10;;;13.70;90.80;;;;;;4959456;28;91955;-79
2022/03/14 13:35:49;;;;;;;3.85;1.20;;;13.90;90.60;;;;;;4958679;28;93757;-79
2022/03/14 13:38:31;;;;;;;7.38;1.10;;;14.00;90.40;;;;;;4965481;28;89956;-79
2022/03/14 13:40:57;;;;;;;2.05;0.90;;;14.10;91.20;;;;;;4981289;28;89179;-79
2022/03/14 13:43:24;;;;;;;4.18;1.05;;;14.40;90.60;;;;;;4980876;28;91952;-78
2022/03/14 13:45:50;;;;;;;7.72;1.38;;;14.80;89.10;;;;;;4974427;28;91660;-80
2022/03/14 13:48:22;;;;;;;5.63;1.30;;;15.00;90.20;;;;;;4962252;28;91183;-79
2022/03/14 13:50:49;;;;;;;3.85;1.10;;;15.30;87.70;;;;;;4964483;28;89206;-79
2022/03/14 13:53:24;;;;;;;4.90;0.90;;;15.00;87.80;;;;;;4962590;28;91514;-80
2022/03/14 13:55:55;;;;;;;3.28;1.20;;;15.00;87.50;;;;;;4963814;28;90171;-80
2022/03/14 13:58:28;;;;;;;9.50;1.40;;;15.20;90.40;;;;;;4973341;28;93196;-79
2022/03/14 14:00:54;;;;;;;4.07;1.63;;;14.90;87.60;;;;;;4978655;28;90170;-80
2022/03/14 14:03:22;;;;;;;2.70;1.20;;;14.60;90.10;;;;;;4963310;28;89793;-80
2022/03/14 14:05:47;;;;;;;5.28;1.15;;;14.60;88.00;;;;;;4970403;28;92306;-80
2022/03/14 14:08:31;;;;;;;5.25;1.23;;;14.50;88.40;;;;;;4968218;28;92327;-78
2022/03/14 14:10:58;;;;;;;3.47;1.02;;;14.70;90.70;;;;;;4961655;28;89220;-80
2022/03/14 14:13:25;;;;;;;2.53;1.33;;;15.00;88.00;;;;;;4961040;28;91552;-80
2022/03/14 14:15:51;;;;;;;7.35;1.60;;;15.20;86.30;;;;;;4968610;28;91575;-80
2022/03/14 14:18:23;;;;;;;2.80;1.10;;;15.00;87.10;;;;;;4976712;28;90967;-80
2022/03/14 14:20:51;;;;;;;4.32;1.17;;;14.70;86.60;;;;;;4970895;28;90781;-80
2022/03/14 14:23:18;;;;;;;6.78;1.05;;;15.20;87.20;;;;;;4981336;28;91885;-80
2022/03/14 14:25:49;;;;;;;5.53;0.90;;;15.40;83.90;;;;;;4968780;28;90254;-79
2022/03/14 14:28:19;;;;;;;4.68;1.52;;;15.70;84.80;;;;;;4978499;28;91397;-79
2022/03/14 14:30:49;;;;;;;3.72;1.00;;;15.90;81.30;;;;;;4977509;28;89249;-80
2022/03/14 14:33:18;;;;;;;4.88;1.05;;;16.30;86.00;;;;;;4977540;28;92763;-80
2022/03/14 14:35:46;;;;;;;4.05;1.27;;;16.80;80.00;;;;;;4966285;28;91633;-80
2022/03/14 14:38:14;;;;;;;2.67;0.93;;;17.90;76.20;;;;;;4959350;28;91483;-77
2022/03/14 14:40:46;;;;;;;3.13;1.00;;;18.30;74.70;;;;;;4966857;28;89178;-81
2022/03/14 14:43:12;;;;;;;4.53;0.85;;;17.90;74.60;;;;;;4980715;28;89133;-80
2022/03/14 14:45:38;;;;;;;2.38;0.63;;;17.10;72.40;;;;;;4980220;28;90567;-81
2022/03/14 14:48:05;;;;;;;2.25;0.73;;;16.60;75.10;;;;;;4967632;28;93016;-80
2022/03/14 14:50:32;;;;;;;3.70;0.82;;;16.10;76.10;;;;;;4965880;28;90462;-82
2022/03/14 14:52:59;;;;;;;3.42;0.90;;;17.40;77.80;;;;;;4968322;28;91667;-80
2022/03/14 14:55:24;;;;;;;3.38;0.90;;;18.80;70.00;;;;;;4969441;28;89374;-80
2022/03/14 14:57:50;;;;;;;2.25;0.73;;;18.20;71.50;;;;;;4968218;28;91758;-81
2022/03/14 15:00:17;;;;;;;2.13;0.75;;;18.60;66.50;;;;;;4969662;28;89987;-81
2022/03/14 15:02:43;;;;;;;2.03;0.70;;;18.00;70.50;;;;;;4974617;28;89230;-80
2022/03/14 15:05:09;;;;;;;2.75;0.70;;;18.10;68.50;;;;;;4977351;28;92828;-80
2022/03/14 15:07:40;;;;;;;2.67;0.80;;;18.70;66.00;;;;;;4969490;28;89590;-81
2022/03/14 15:10:10;;;;;;;2.88;0.90;;;19.60;65.90;;;;;;4967880;28;90287;-80
2022/03/14 15:12:37;;;;;;;3.60;1.00;;;20.50;63.40;;;;;;4964470;28;90948;-82
2022/03/14 15:15:03;;;;;;;3.75;0.90;;;20.90;64.20;;;;;;4963042;28;92205;-81
2022/03/14 15:17:28;;;;;;;2.50;0.80;;;21.00;62.80;;;;;;4963483;28;92063;-81
2022/03/14 15:19:54;;;;;;;3.33;0.98;;;21.50;60.50;;;;;;4965191;28;89249;-80
2022/03/14 15:22:20;;;;;;;3.97;0.90;;;22.00;60.20;;;;;;4962377;28;92257;-81
2022/03/14 15:24:46;;;;;;;1.73;0.90;;;21.60;59.40;;;;;;4966946;28;91390;-79
2022/03/14 15:27:11;;;;;;;3.95;0.93;;;21.70;58.60;;;;;;4959899;28;89725;-77
2022/03/14 15:29:38;;;;;;;3.17;0.93;;;21.80;57.30;;;;;;4962272;28;89197;-79
2022/03/14 15:32:05;;;;;;;3.13;0.70;;;21.70;57.10;;;;;;4964552;28;92627;-80
2022/03/14 15:34:32;;;;;;;2.17;1.00;;;22.70;55.50;;;;;;4961932;28;91997;-78
2022/03/14 15:36:58;;;;;;;2.20;0.95;;;22.40;56.10;;;;;;4961151;28;89218;-78
2022/03/14 15:39:24;;;;;;;2.58;1.10;;;22.50;56.50;;;;;;4961468;28;90200;-77
2022/03/14 15:41:50;;;;;;;4.05;1.30;;;22.90;55.20;;;;;;4957590;28;92603;-77
2022/03/14 15:44:16;;;;;;;2.33;1.10;;;22.40;54.70;;;;;;4969994;28;90347;-79
2022/03/14 15:46:42;;;;;;;5.30;1.20;;;21.90;56.30;;;;;;4970854;28;92979;-78
2022/03/14 15:49:08;;;;;;;4.50;1.20;;;22.40;57.00;;;;;;4960174;28;89218;-79
2022/03/14 15:51:37;;;;;;;4.55;1.15;;;21.60;57.60;;;;;;4960504;28;89694;-78
2022/03/14 15:54:04;;;;;;;4.40;1.25;;;20.70;58.50;;;;;;4958140;28;92064;-76
2022/03/14 15:56:30;;;;;;;4.50;1.02;;;20.70;58.40;;;;;;4957654;28;91450;-76
2022/03/14 15:58:56;;;;;;;4.38;1.10;;;20.70;59.70;;;;;;4961978;28;89188;-77
2022/03/14 16:01:21;;;;;;;3.85;1.30;;;20.90;58.90;;;;;;4960429;28;91510;-80
2022/03/14 16:03:47;;;;;;;4.18;1.25;;;20.90;58.80;;;;;;4960308;28;90463;-77
2022/03/14 16:06:13;;;;;;;2.85;1.00;;;21.20;57.90;;;;;;4960938;28;90907;-80
2022/03/14 16:08:39;;;;;;;5.88;1.20;;;20.80;59.10;;;;;;4961377;28;89371;-77
2022/03/14 16:11:04;;;;;;;3.58;1.20;;;20.20;59.10;;;;;;4958349;28;93026;-79
2022/03/14 16:13:31;;;;;;;4.22;1.10;;;19.70;61.10;;;;;;4959483;28;92653;-80
2022/03/14 16:16:00;;;;;;;1.98;0.98;;;19.10;62.70;;;;;;4964677;28;89852;-80
2022/03/14 16:18:27;;;;;;;4.00;0.93;;;18.60;65.50;;;;;;4960770;28;89303;-81
2022/03/14 16:20:53;;;;;;;6.47;1.20;;;18.00;65.20;;;;;;4962395;28;89834;-80
2022/03/14 16:23:19;;;;;;;4.60;1.00;;;17.20;69.70;;;;;;4959977;28;89347;-80
2022/03/14 16:25:46;;;;;;;2.90;0.93;;;16.50;72.80;;;;;;4963881;28;92644;-80
2022/03/14 16:28:15;;;;;;;4.60;1.35;;;16.30;71.50;;;;;;4978171;28;90281;-81
2022/03/14 16:30:43;;;;;;;6.85;1.38;;;16.30;72.40;;;;;;4978322;28;92832;-81
2022/03/14 16:33:10;;;;;;;4.80;1.20;;;16.10;73.60;;;;;;4964270;28;90172;-80
2022/03/14 16:35:36;;;;;;;3.60;0.85;;;15.80;73.10;;;;;;4960415;28;89223;-80
2022/03/14 16:38:01;;;;;;;4.07;0.98;;;15.20;74.80;;;;;;4959507;28;89387;-80
2022/03/14 16:40:27;;;;;;;5.88;1.50;;;14.70;75.50;;;;;;4957617;28;92486;-78
2022/03/14 16:42:53;;;;;;;5.50;1.10;;;14.10;78.80;;;;;;4958978;28;92791;-80
2022/03/14 16:45:23;;;;;;;6.70;1.08;;;13.70;79.80;;;;;;4979274;28;88971;-80
2022/03/14 16:47:50;;;;;;;5.35;1.30;;;13.40;80.60;;;;;;4963836;28;89216;-80
2022/03/14 16:50:16;;;;;;;2.78;1.00;;;13.10;83.20;;;;;;4959429;28;91265;-82
2022/03/14 16:52:43;;;;;;;5.43;1.35;;;12.90;84.20;;;;;;4958645;28;93680;-80
2022/03/14 16:55:10;;;;;;;2.92;1.00;;;12.60;86.60;;;;;;4957051;28;92080;-80
2022/03/14 16:57:37;;;;;;;3.00;0.73;;;12.40;87.30;;;;;;4959458;28;89241;-79
2022/03/14 17:00:06;;;;;;;4.05;0.90;;;12.20;90.00;;;;;;4959887;28;91579;-82
2022/03/14 17:02:32;;;;;;;5.35;1.10;;;12.00;90.00;;;;;;4956876;28;92441;-79
2022/03/14 17:04:57;;;;;;;4.30;1.30;;;11.70;90.30;;;;;;4972514;28;90862;-79
2022/03/14 17:07:23;;;;;;;4.10;1.08;;;11.50;91.00;;;;;;4959813;28;89215;-80
2022/03/14 17:09:49;;;;;;;2.60;1.08;;;11.30;91.90;;;;;;4957802;28;93379;-81
2022/03/14 17:12:15;;;;;;;1.95;0.90;;;11.00;92.70;;;;;;4956537;28;91899;-79
2022/03/14 17:14:41;;;;;;;5.35;1.27;;;10.80;94.20;;;;;;4956439;28;92953;-78
2022/03/14 17:17:14;;;;;;;7.97;2.30;;;10.50;94.00;;;;;;4956070;28;90237;-79
2022/03/14 17:19:41;;;;;;;9.82;3.10;;;10.20;94.80;;;;;;4963354;28;89851;-79
2022/03/14 17:22:07;;;;;;;9.00;3.13;;;10.00;95.60;;;;;;4957792;28;90176;-78
2022/03/14 17:24:33;;;;;;;5.53;2.22;;;9.70;96.30;;;;;;4957695;28;89396;-77
2022/03/14 17:26:58;;;;;;;5.80;2.10;;;9.50;97.50;;;;;;4956267;28;90365;-78
2022/03/14 17:29:24;;;;;;;3.63;1.88;;;9.30;97.90;;;;;;4958623;28;89814;-78
2022/03/14 17:31:49;;;;;;;10.25;2.28;;;9.00;98.30;;;;;;4958136;28;90209;-78
2022/03/14 17:34:15;;;;;;;8.80;2.20;;;8.80;99.30;;;;;;4957815;28;90318;-79
2022/03/14 17:36:41;;;;;;;5.90;2.65;;;8.60;99.90;;;;;;4959466;28;89319;-79
2022/03/14 17:39:07;;;;;;;7.68;2.78;;;8.40;99.90;;;;;;4960076;28;92486;-79
2022/03/14 17:41:33;;;;;;;8.95;2.28;;;8.30;99.90;;;;;;4961170;28;93719;-79
2022/03/14 17:43:59;;;;;;;8.32;2.00;;;8.10;99.90;;;;;;4960474;28;93411;-80
2022/03/14 17:46:25;;;;;;;7.90;2.10;;;7.90;99.90;;;;;;4962340;28;89364;-81
2022/03/14 17:48:50;;;;;;;12.73;5.72;;;7.70;99.90;;;;;;4962886;28;89554;-81
2022/03/14 17:51:18;;;;;;;11.80;6.75;;;7.60;99.90;;;;;;4961418;28;91573;-81
2022/03/14 17:53:43;;;;;;;12.88;7.20;;;7.50;99.90;;;;;;4960944;28;92860;-80
2022/03/14 17:56:09;;;;;;;12.98;6.80;;;7.30;99.90;;;;;;4962237;28;89365;-78